createdAt,value
2019-05-22T00:01:41.138Z,54.00
2019-05-22T00:04:19.187Z,54.00
2019-05-22T00:06:52.677Z,53.90
2019-05-22T00:09:28.801Z,54.00
2019-05-22T00:12:01.333Z,54.00
2019-05-22T00:14:35.147Z,54.00
2019-05-22T00:17:07.363Z,54.00
2019-05-22T00:19:40.362Z,54.00
2019-05-22T00:22:17.283Z,54.00
2019-05-22T00:24:50.353Z,54.10
2019-05-22T00:27:22.628Z,54.00
2019-05-22T00:29:56.018Z,54.10
2019-05-22T00:32:27.264Z,54.20
2019-05-22T00:35:00.199Z,54.20
2019-05-22T00:37:32.366Z,54.20
2019-05-22T00:40:05.224Z,54.00
2019-05-22T00:42:38.263Z,54.10
2019-05-22T00:45:12.903Z,54.20
2019-05-22T00:47:45.455Z,54.20
2019-05-22T00:50:21.121Z,54.20
2019-05-22T00:53:28.291Z,54.20
2019-05-22T00:56:02.670Z,54.30
2019-05-22T00:58:36.167Z,54.30
2019-05-22T01:01:26.916Z,54.30
2019-05-22T01:03:58.719Z,54.30
2019-05-22T01:06:30.523Z,54.40
2019-05-22T01:09:04.836Z,54.40
2019-05-22T01:11:37.328Z,54.40
2019-05-22T01:14:10.279Z,54.50
2019-05-22T01:16:43.176Z,54.50
2019-05-22T01:19:15.928Z,54.70
2019-05-22T01:21:47.779Z,54.60
2019-05-22T01:24:19.511Z,54.70
2019-05-22T01:26:52.118Z,54.90
2019-05-22T01:29:23.428Z,55.00
2019-05-22T01:32:00.448Z,55.00
2019-05-22T01:34:32.794Z,55.00
2019-05-22T01:37:08.107Z,55.30
2019-05-22T01:40:27.812Z,55.20
2019-05-22T01:43:02.510Z,55.30
2019-05-22T01:45:36.159Z,55.70
2019-05-22T01:48:12.139Z,55.30
2019-05-22T01:50:48.287Z,55.40
2019-05-22T01:53:24.050Z,55.40
2019-05-22T01:55:59.455Z,55.50
2019-05-22T01:58:31.675Z,55.30
2019-05-22T02:01:06.934Z,55.40
2019-05-22T02:03:39.352Z,55.30
2019-05-22T02:06:10.575Z,55.40
2019-05-22T02:08:46.119Z,55.50
2019-05-22T02:11:21.950Z,55.50
2019-05-22T02:13:58.006Z,55.50
2019-05-22T02:16:32.179Z,55.50
2019-05-22T02:19:05.979Z,55.60
2019-05-22T02:21:37.239Z,55.60
2019-05-22T02:24:09.708Z,55.60
2019-05-22T02:26:42.447Z,55.60
2019-05-22T02:29:14.221Z,55.70
2019-05-22T02:31:47.180Z,55.80
2019-05-22T02:34:19.659Z,55.90
2019-05-22T02:36:50.600Z,56.10
2019-05-22T02:39:24.798Z,56.10
2019-05-22T02:41:59.787Z,56.10
2019-05-22T02:44:32.679Z,56.10
2019-05-22T02:47:18.807Z,56.30
2019-05-22T02:49:40.488Z,56.50
2019-05-22T02:52:13.362Z,56.80
2019-05-22T02:54:45.628Z,56.90
2019-05-22T02:57:16.959Z,57.30
2019-05-22T02:59:49.391Z,57.70
2019-05-22T03:02:21.308Z,58.00
2019-05-22T03:05:01.453Z,58.40
2019-05-22T03:07:33.035Z,58.80
2019-05-22T03:10:05.329Z,59.10
2019-05-22T03:12:38.775Z,59.30
2019-05-22T03:15:14.863Z,59.80
2019-05-22T03:17:47.672Z,59.90
2019-05-22T03:20:21.892Z,60.10
2019-05-22T03:23:03.030Z,60.40
2019-05-22T03:25:35.584Z,60.80
2019-05-22T03:28:08.212Z,61.10
2019-05-22T03:30:42.764Z,61.30
2019-05-22T03:33:15.592Z,61.60
2019-05-22T03:35:48.706Z,61.60
2019-05-22T03:38:20.527Z,61.90
2019-05-22T03:40:53.490Z,62.10
2019-05-22T03:43:28.324Z,62.30
2019-05-22T03:46:03.742Z,62.30
2019-05-22T03:48:37.875Z,62.00
2019-05-22T03:51:14.893Z,62.60
2019-05-22T03:53:47.762Z,62.90
2019-05-22T03:56:20.230Z,63.00
2019-05-22T03:58:53.161Z,63.20
2019-05-22T04:01:26.420Z,63.30
2019-05-22T04:03:59.023Z,63.50
2019-05-22T04:06:30.272Z,63.40
2019-05-22T04:09:06.369Z,63.60
2019-05-22T04:11:40.764Z,63.90
2019-05-22T04:14:12.432Z,63.90
2019-05-22T04:16:44.895Z,64.00
2019-05-22T04:19:17.083Z,64.30
2019-05-22T04:21:48.996Z,64.40
2019-05-22T04:24:20.557Z,65.20
2019-05-22T04:26:52.793Z,64.20
2019-05-22T04:29:25.939Z,64.30
2019-05-22T04:32:00.543Z,64.40
2019-05-22T04:34:32.843Z,64.40
2019-05-22T04:37:05.592Z,64.30
2019-05-22T04:39:39.674Z,64.40
2019-05-22T04:42:13.903Z,64.60
2019-05-22T04:45:09.186Z,64.60
2019-05-22T04:47:43.636Z,64.70
2019-05-22T04:50:15.784Z,64.70
2019-05-22T04:52:49.724Z,64.70
2019-05-22T04:55:22.020Z,64.90
2019-05-22T04:57:54.156Z,65.20
2019-05-22T05:00:28.203Z,65.20
2019-05-22T05:02:59.650Z,65.50
2019-05-22T05:05:34.995Z,65.60
2019-05-22T05:08:06.766Z,65.60
2019-05-22T05:10:38.174Z,65.80
2019-05-22T05:13:09.643Z,66.00
2019-05-22T05:15:41.018Z,66.00
2019-05-22T05:18:12.091Z,66.10
2019-05-22T05:20:43.396Z,66.20
2019-05-22T05:23:14.834Z,66.30
2019-05-22T05:25:46.662Z,66.60
2019-05-22T05:28:18.560Z,66.90
2019-05-22T05:30:50.231Z,67.10
2019-05-22T05:33:21.607Z,67.20
2019-05-22T05:35:53.076Z,67.30
2019-05-22T05:38:34.529Z,67.50
2019-05-22T05:41:07.647Z,67.40
2019-05-22T05:43:38.903Z,67.60
2019-05-22T05:46:10.161Z,67.70
2019-05-22T05:48:42.240Z,67.80
2019-05-22T05:51:34.002Z,67.90
2019-05-22T05:54:13.199Z,68.00
2019-05-22T05:56:49.135Z,68.20
2019-05-22T05:59:21.951Z,68.50
2019-05-22T06:01:54.806Z,68.50
2019-05-22T06:04:35.788Z,68.20
2019-05-22T06:07:24.371Z,68.10
2019-05-22T06:10:38.195Z,68.00
2019-05-22T06:13:12.273Z,67.70
2019-05-22T06:16:31.747Z,67.70
2019-05-22T06:19:04.641Z,67.70
2019-05-22T06:21:44.358Z,67.10
2019-05-22T06:24:25.620Z,66.70
2019-05-22T06:27:30.714Z,65.90
2019-05-22T06:30:14.099Z,66.10
2019-05-22T06:33:36.114Z,66.00
2019-05-22T06:36:10.281Z,65.60
2019-05-22T06:38:59.802Z,65.30
2019-05-22T06:41:35.411Z,65.20
2019-05-22T06:44:44.463Z,65.20
2019-05-22T06:47:21.926Z,65.50
2019-05-22T06:49:54.607Z,65.50
2019-05-22T06:52:26.133Z,66.90
2019-05-22T06:54:59.027Z,66.50
2019-05-22T06:57:34.461Z,66.50
2019-05-22T07:00:13.935Z,66.80
2019-05-22T07:02:43.119Z,67.00
2019-05-22T07:05:15.687Z,67.60
2019-05-22T07:07:48.035Z,67.70
2019-05-22T07:10:19.702Z,68.20
2019-05-22T07:12:51.230Z,68.30
2019-05-22T07:15:31.285Z,68.50
2019-05-22T07:18:03.262Z,68.90
2019-05-22T07:20:38.282Z,68.80
2019-05-22T07:23:14.395Z,69.10
2019-05-22T07:25:47.717Z,69.20
2019-05-22T07:28:20.496Z,69.50
2019-05-22T07:30:52.696Z,69.30
2019-05-22T07:33:25.183Z,68.70
2019-05-22T07:36:09.560Z,68.10
2019-05-22T07:38:30.211Z,67.30
2019-05-22T07:41:02.176Z,67.10
2019-05-22T07:43:35.002Z,67.20
2019-05-22T07:46:06.291Z,67.30
2019-05-22T07:48:38.396Z,67.30
2019-05-22T07:51:13.967Z,67.60
2019-05-22T07:53:48.610Z,67.20
2019-05-22T07:56:22.763Z,67.10
2019-05-22T07:58:58.987Z,67.10
2019-05-22T08:01:30.233Z,67.00
2019-05-22T08:04:04.811Z,66.50
2019-05-22T08:06:36.176Z,66.90
2019-05-22T08:09:10.311Z,66.80
2019-05-22T08:11:42.455Z,67.20
2019-05-22T08:14:14.503Z,67.60
2019-05-22T08:16:46.780Z,67.70
2019-05-22T08:19:18.076Z,67.60
2019-05-22T08:22:04.547Z,67.50
2019-05-22T08:24:23.359Z,67.50
2019-05-22T08:26:55.238Z,67.40
2019-05-22T08:29:28.146Z,67.60
2019-05-22T08:32:00.799Z,67.40
2019-05-22T08:34:32.236Z,67.00
2019-05-22T08:37:05.888Z,66.50
2019-05-22T08:39:38.155Z,66.10
2019-05-22T08:42:13.271Z,65.70
2019-05-22T08:44:44.367Z,65.60
2019-05-22T08:47:17.226Z,65.90
2019-05-22T08:49:49.285Z,65.70
2019-05-22T08:52:23.948Z,65.60
2019-05-22T08:54:55.619Z,65.40
2019-05-22T08:57:26.675Z,66.10
2019-05-22T08:59:58.263Z,65.40
2019-05-22T09:02:29.897Z,65.40
2019-05-22T09:05:01.275Z,65.60
2019-05-22T09:07:33.455Z,65.50
2019-05-22T09:10:05.056Z,65.30
2019-05-22T09:12:36.398Z,65.40
2019-05-22T09:15:08.251Z,65.50
2019-05-22T09:17:40.088Z,65.80
2019-05-22T09:20:12.555Z,65.80
2019-05-22T09:22:43.827Z,66.00
2019-05-22T09:25:16.630Z,66.50
2019-05-22T09:27:48.699Z,66.60
2019-05-22T09:30:20.601Z,66.80
2019-05-22T09:32:52.587Z,66.90
2019-05-22T09:35:23.917Z,67.40
2019-05-22T09:37:55.351Z,67.90
2019-05-22T09:40:28.388Z,67.40
2019-05-22T09:42:59.619Z,67.40
2019-05-22T09:45:31.986Z,67.30
2019-05-22T09:48:05.204Z,67.40
2019-05-22T09:50:37.408Z,67.80
2019-05-22T09:53:08.914Z,68.00
2019-05-22T09:55:40.627Z,67.80
2019-05-22T09:58:11.841Z,68.00
2019-05-22T10:00:43.111Z,68.30
2019-05-22T10:03:15.151Z,68.50
2019-05-22T10:05:46.383Z,68.70
2019-05-22T10:08:18.127Z,69.00
2019-05-22T10:10:49.655Z,69.30
2019-05-22T10:13:21.015Z,69.60
2019-05-22T10:15:51.900Z,69.90
2019-05-22T10:18:22.704Z,70.30
2019-05-22T10:20:54.372Z,70.30
2019-05-22T10:23:25.455Z,70.50
2019-05-22T10:25:57.091Z,70.50
2019-05-22T10:28:28.097Z,70.40
2019-05-22T10:30:59.841Z,70.60
2019-05-22T10:33:32.348Z,70.60
2019-05-22T10:36:04.008Z,70.30
2019-05-22T10:38:35.383Z,70.50
2019-05-22T10:41:07.637Z,70.50
2019-05-22T10:43:38.964Z,70.40
2019-05-22T10:46:10.528Z,70.30
2019-05-22T10:48:41.960Z,70.20
2019-05-22T10:51:13.636Z,70.10
2019-05-22T10:53:44.655Z,70.20
2019-05-22T10:56:15.671Z,70.10
2019-05-22T10:58:46.763Z,70.10
2019-05-22T11:01:18.779Z,70.10
2019-05-22T11:03:50.440Z,70.00
2019-05-22T11:06:21.958Z,70.00
2019-05-22T11:08:53.451Z,70.10
2019-05-22T11:11:26.119Z,70.30
2019-05-22T11:14:01.850Z,70.40
2019-05-22T11:16:30.359Z,70.50
2019-05-22T11:19:02.531Z,70.50
2019-05-22T11:21:35.211Z,70.70
2019-05-22T11:24:06.615Z,70.80
2019-05-22T11:26:38.030Z,71.00
2019-05-22T11:29:08.713Z,71.00
2019-05-22T11:31:40.727Z,71.00
2019-05-22T11:34:12.831Z,71.10
2019-05-22T11:36:44.530Z,71.40
2019-05-22T11:39:17.759Z,71.60
2019-05-22T11:41:49.007Z,71.50
2019-05-22T11:44:20.374Z,71.30
2019-05-22T11:46:51.992Z,71.20
2019-05-22T11:49:23.860Z,71.40
2019-05-22T11:51:55.351Z,71.20
2019-05-22T11:54:31.687Z,71.30
2019-05-22T11:57:03.217Z,71.30
2019-05-22T11:59:35.471Z,71.50
2019-05-22T12:02:08.255Z,71.40
2019-05-22T12:04:47.753Z,71.40
2019-05-22T12:07:13.603Z,71.50
2019-05-22T12:09:45.712Z,71.60
2019-05-22T12:12:17.867Z,71.60
2019-05-22T12:14:49.244Z,71.80
2019-05-22T12:17:36.833Z,71.50
2019-05-22T12:19:54.176Z,71.20
2019-05-22T12:22:29.035Z,70.90
2019-05-22T12:25:00.374Z,70.40
2019-05-22T12:27:32.400Z,70.20
2019-05-22T12:30:04.060Z,70.00
2019-05-22T12:32:36.526Z,69.80
2019-05-22T12:35:08.192Z,69.90
2019-05-22T12:37:39.564Z,70.10
2019-05-22T12:40:14.443Z,70.30
2019-05-22T12:42:46.382Z,70.30
2019-05-22T12:45:24.032Z,70.30
2019-05-22T12:47:56.376Z,70.40
2019-05-22T12:50:30.011Z,70.40
2019-05-22T12:53:04.723Z,70.30
2019-05-22T12:55:36.118Z,70.50
2019-05-22T12:58:08.459Z,70.60
2019-05-22T13:00:41.093Z,70.80
2019-05-22T13:03:14.467Z,70.80
2019-05-22T13:05:46.623Z,70.80
2019-05-22T13:08:18.133Z,71.00
2019-05-22T13:10:50.199Z,70.90
2019-05-22T13:13:22.128Z,71.00
2019-05-22T13:15:54.075Z,71.00
2019-05-22T13:18:25.954Z,71.10
2019-05-22T13:20:57.424Z,71.10
2019-05-22T13:23:31.959Z,71.10
2019-05-22T13:26:04.289Z,71.20
2019-05-22T13:28:37.504Z,70.90
2019-05-22T13:31:10.183Z,71.00
2019-05-22T13:33:43.250Z,71.20
2019-05-22T13:36:16.682Z,71.30
2019-05-22T13:38:48.479Z,71.50
2019-05-22T13:41:21.027Z,71.40
2019-05-22T13:43:52.767Z,71.20
2019-05-22T13:46:24.155Z,71.40
2019-05-22T13:48:55.583Z,71.70
2019-05-22T13:51:29.387Z,71.60
2019-05-22T13:54:01.275Z,71.60
2019-05-22T13:56:36.647Z,71.60
2019-05-22T13:59:09.415Z,71.60
2019-05-22T14:01:41.416Z,71.80
2019-05-22T14:04:12.777Z,71.70
2019-05-22T14:06:44.244Z,71.80
2019-05-22T14:09:21.312Z,71.80
2019-05-22T14:11:52.908Z,71.90
2019-05-22T14:14:24.578Z,71.90
2019-05-22T14:16:55.872Z,71.90
2019-05-22T14:19:26.703Z,72.00
2019-05-22T14:21:57.885Z,72.20
2019-05-22T14:24:28.979Z,72.40
2019-05-22T14:27:00.298Z,72.30
2019-05-22T14:29:31.602Z,72.10
2019-05-22T14:32:03.602Z,72.10
2019-05-22T14:34:36.311Z,71.90
2019-05-22T14:37:09.067Z,71.90
2019-05-22T14:39:40.706Z,71.70
2019-05-22T14:42:14.099Z,71.80
2019-05-22T14:44:45.943Z,71.60
2019-05-22T14:47:17.767Z,71.60
2019-05-22T14:49:49.057Z,71.60
2019-05-22T14:52:21.775Z,71.60
2019-05-22T14:54:53.695Z,71.50
2019-05-22T14:57:27.300Z,71.50
2019-05-22T14:59:58.876Z,71.80
2019-05-22T15:02:31.257Z,71.90
2019-05-22T15:05:03.747Z,72.00
2019-05-22T15:07:35.527Z,71.70
2019-05-22T15:10:07.645Z,70.80
2019-05-22T15:12:39.428Z,70.10
2019-05-22T15:15:11.808Z,69.50
2019-05-22T15:17:43.416Z,69.10
2019-05-22T15:20:19.098Z,68.90
2019-05-22T15:22:50.817Z,68.60
2019-05-22T15:25:24.707Z,68.50
2019-05-22T15:27:57.047Z,68.60
2019-05-22T15:30:28.395Z,68.50
2019-05-22T15:33:00.023Z,68.50
2019-05-22T15:35:31.747Z,68.80
2019-05-22T15:38:03.352Z,69.00
2019-05-22T15:40:35.401Z,69.40
2019-05-22T15:43:08.273Z,69.20
2019-05-22T15:45:42.079Z,69.50
2019-05-22T15:48:20.443Z,69.70
2019-05-22T15:50:53.931Z,69.60
2019-05-22T15:53:26.416Z,69.70
2019-05-22T15:55:59.584Z,70.00
2019-05-22T15:58:32.941Z,70.10
2019-05-22T16:01:05.397Z,70.30
2019-05-22T16:03:36.911Z,70.20
2019-05-22T16:06:09.237Z,70.40
2019-05-22T16:08:40.844Z,70.60
2019-05-22T16:11:15.453Z,70.80
2019-05-22T16:13:48.750Z,70.80
2019-05-22T16:16:22.121Z,70.60
2019-05-22T16:18:56.126Z,70.30
2019-05-22T16:21:29.556Z,70.30
2019-05-22T16:24:02.221Z,70.20
2019-05-22T16:26:33.960Z,70.10
2019-05-22T16:29:07.792Z,70.00
2019-05-22T16:31:40.063Z,69.90
2019-05-22T16:34:12.595Z,69.90
2019-05-22T16:36:45.163Z,69.70
2019-05-22T16:39:17.736Z,69.20
2019-05-22T16:41:50.931Z,68.80
2019-05-22T16:44:21.981Z,68.70
2019-05-22T16:46:54.071Z,68.30
2019-05-22T16:49:26.652Z,68.40
2019-05-22T16:51:59.155Z,68.70
2019-05-22T16:54:32.088Z,68.60
2019-05-22T16:57:04.083Z,68.80
2019-05-22T16:59:37.279Z,68.80
2019-05-22T17:02:09.539Z,68.50
2019-05-22T17:04:41.424Z,68.40
2019-05-22T17:07:13.223Z,68.40
2019-05-22T17:09:45.067Z,68.40
2019-05-22T17:12:18.334Z,68.30
2019-05-22T17:14:51.948Z,68.30
2019-05-22T17:17:23.755Z,68.30
2019-05-22T17:19:55.455Z,68.50
2019-05-22T17:22:27.654Z,68.50
2019-05-22T17:25:00.447Z,68.70
2019-05-22T17:27:32.632Z,68.80
2019-05-22T17:30:04.861Z,68.70
2019-05-22T17:32:36.956Z,68.50
2019-05-22T17:35:08.518Z,68.60
2019-05-22T17:37:40.249Z,68.50
2019-05-22T17:40:12.647Z,68.50
2019-05-22T17:42:46.796Z,68.40
2019-05-22T17:45:21.101Z,68.20
2019-05-22T17:47:54.284Z,67.70
2019-05-22T17:50:30.440Z,67.50
2019-05-22T17:53:04.084Z,67.40
2019-05-22T17:55:36.628Z,67.00
2019-05-22T17:58:08.967Z,67.10
2019-05-22T18:00:43.549Z,67.20
2019-05-22T18:03:15.646Z,67.20
2019-05-22T18:05:48.138Z,67.30
2019-05-22T18:08:20.568Z,67.40
2019-05-22T18:10:52.746Z,67.30
2019-05-22T18:13:25.083Z,67.50
2019-05-22T18:15:57.128Z,67.50
2019-05-22T18:18:29.387Z,67.70
2019-05-22T18:21:00.907Z,67.40
2019-05-22T18:23:33.406Z,67.40
2019-05-22T18:26:05.560Z,67.50
2019-05-22T18:28:37.239Z,67.50
2019-05-22T18:31:08.767Z,68.40
2019-05-22T18:33:41.047Z,67.60
2019-05-22T18:36:12.755Z,67.60
2019-05-22T18:38:44.271Z,67.70
2019-05-22T18:41:15.825Z,67.70
2019-05-22T18:43:47.192Z,67.70
2019-05-22T18:46:20.023Z,67.70
2019-05-22T18:48:51.918Z,67.60
2019-05-22T18:51:23.875Z,67.60
2019-05-22T18:53:55.429Z,67.40
2019-05-22T18:56:27.523Z,67.50
2019-05-22T18:58:59.161Z,67.40
2019-05-22T19:01:30.411Z,67.40
2019-05-22T19:04:01.537Z,67.10
2019-05-22T19:06:33.603Z,67.10
2019-05-22T19:09:06.494Z,66.90
2019-05-22T19:11:38.589Z,66.90
2019-05-22T19:14:10.683Z,66.70
2019-05-22T19:16:44.833Z,66.60
2019-05-22T19:19:16.383Z,66.40
2019-05-22T19:21:47.371Z,66.40
2019-05-22T19:24:19.027Z,66.10
2019-05-22T19:26:50.757Z,65.90
2019-05-22T19:29:22.091Z,65.90
2019-05-22T19:31:53.115Z,66.60
2019-05-22T19:34:24.894Z,65.70
2019-05-22T19:36:56.507Z,65.50
2019-05-22T19:39:29.461Z,65.50
2019-05-22T19:42:04.727Z,65.40
2019-05-22T19:44:33.619Z,65.20
2019-05-22T19:47:05.445Z,65.20
2019-05-22T19:49:37.623Z,65.20
2019-05-22T19:52:11.600Z,65.20
2019-05-22T19:54:43.173Z,65.10
2019-05-22T19:57:15.143Z,65.10
2019-05-22T19:59:49.207Z,65.20
2019-05-22T20:02:23.187Z,65.10
2019-05-22T20:04:56.119Z,64.90
2019-05-22T20:07:27.640Z,65.00
2019-05-22T20:09:58.838Z,65.10
2019-05-22T20:12:31.667Z,64.90
2019-05-22T20:15:02.936Z,64.90
2019-05-22T20:17:35.595Z,64.90
2019-05-22T20:20:10.435Z,65.00
2019-05-22T20:22:42.265Z,65.00
2019-05-22T20:25:17.940Z,65.00
2019-05-22T20:27:49.291Z,65.00
2019-05-22T20:30:23.003Z,65.10
2019-05-22T20:32:54.390Z,65.00
2019-05-22T20:35:27.013Z,65.00
2019-05-22T20:38:00.398Z,64.90
2019-05-22T20:40:32.572Z,64.90
2019-05-22T20:43:05.971Z,65.00
2019-05-22T20:45:38.962Z,65.00
2019-05-22T20:48:17.637Z,65.00
2019-05-22T20:50:49.919Z,64.80
2019-05-22T20:53:22.018Z,64.90
2019-05-22T20:55:53.479Z,64.80
2019-05-22T20:58:27.339Z,64.80
2019-05-22T21:00:59.012Z,64.90
2019-05-22T21:03:31.759Z,64.90
2019-05-22T21:06:07.902Z,65.10
2019-05-22T21:08:40.360Z,65.10
2019-05-22T21:11:15.097Z,65.20
2019-05-22T21:13:46.778Z,65.20
2019-05-22T21:16:18.618Z,65.30
2019-05-22T21:18:51.896Z,65.10
2019-05-22T21:21:25.765Z,65.20
2019-05-22T21:24:09.478Z,65.10
2019-05-22T21:26:32.357Z,65.30
2019-05-22T21:29:04.411Z,65.20
2019-05-22T21:31:35.938Z,65.00
2019-05-22T21:34:07.368Z,65.10
2019-05-22T21:36:38.810Z,65.10
2019-05-22T21:39:13.381Z,65.20
2019-05-22T21:41:45.075Z,65.20
2019-05-22T21:44:17.019Z,65.10
2019-05-22T21:46:48.650Z,65.20
2019-05-22T21:49:20.917Z,64.80
2019-05-22T21:51:52.899Z,64.80
2019-05-22T21:54:23.911Z,65.00
2019-05-22T21:56:55.266Z,65.10
2019-05-22T21:59:27.099Z,65.30
2019-05-22T22:02:16.451Z,65.40
2019-05-22T22:04:48.663Z,65.60
2019-05-22T22:07:21.507Z,65.70
2019-05-22T22:09:53.693Z,65.70
2019-05-22T22:12:24.979Z,65.70
2019-05-22T22:14:56.687Z,65.70
2019-05-22T22:17:30.142Z,65.70
2019-05-22T22:20:02.207Z,65.80
2019-05-22T22:22:33.973Z,65.90
2019-05-22T22:25:07.164Z,66.00
2019-05-22T22:27:39.890Z,66.10
2019-05-22T22:30:25.304Z,66.00
2019-05-22T22:32:58.872Z,65.90
2019-05-22T22:35:31.635Z,65.90
2019-05-22T22:38:04.376Z,66.00
2019-05-22T22:40:37.610Z,66.00
2019-05-22T22:43:10.230Z,66.00
2019-05-22T22:45:50.651Z,66.00
2019-05-22T22:48:24.266Z,66.10
2019-05-22T22:50:56.361Z,66.00
2019-05-22T22:53:28.683Z,66.10
2019-05-22T22:56:01.179Z,66.10
2019-05-22T22:58:33.340Z,66.00
2019-05-22T23:01:07.736Z,66.00
2019-05-22T23:03:39.751Z,66.00
2019-05-22T23:06:13.887Z,66.10
2019-05-22T23:08:45.863Z,66.10
2019-05-22T23:11:19.078Z,66.00
2019-05-22T23:13:51.103Z,66.00
2019-05-22T23:16:23.587Z,66.10
2019-05-22T23:19:46.919Z,66.10
2019-05-22T23:22:22.051Z,66.00
2019-05-22T23:24:56.118Z,66.00
2019-05-22T23:27:29.363Z,65.90
2019-05-22T23:30:01.221Z,65.80
2019-05-22T23:32:34.121Z,65.80
2019-05-22T23:35:07.191Z,65.80
2019-05-22T23:37:39.631Z,65.80
2019-05-22T23:40:13.147Z,65.80
2019-05-22T23:42:45.790Z,65.70
2019-05-22T23:45:20.531Z,65.70
2019-05-22T23:48:03.575Z,65.60
2019-05-22T23:50:36.953Z,65.60
2019-05-22T23:53:10.304Z,65.00
2019-05-22T23:55:43.264Z,65.50
2019-05-22T23:58:16.494Z,65.40
